Time;durP1;ratioP1;P1;durP2;ratioP2;P2;SDS_P1;SDS_P2;PMS_P1;PMS_P2;Temp;Humidity;BMP_temperature;BMP_pressure;BME280_temperature;BME280_humidity;BME280_pressure;Samples;Min_cycle;Max_cycle;Signal;HPM_P1;HPM_P2
2022/03/20 00:02:19;;;;;;;6.13;4.15;;;;;;;3.27;95.59;103884.84;5014026;28;20478;-78
2022/03/20 00:04:44;;;;;;;7.28;3.83;;;;;;;3.26;95.66;103881.38;5016149;28;20024;-78
2022/03/20 00:07:11;;;;;;;6.70;4.22;;;;;;;3.06;95.45;103839.97;5015940;28;20423;-78
2022/03/20 00:09:38;;;;;;;8.77;4.70;;;;;;;3.16;95.35;103860.69;5010499;28;20556;-77
2022/03/20 00:12:04;;;;;;;7.50;4.15;;;;;;;3.12;95.75;103848.59;5018984;28;20021;-77
2022/03/20 00:14:30;;;;;;;9.23;5.03;;;;;;;3.04;95.84;103851.34;5003100;28;20444;-77
2022/03/20 00:16:55;;;;;;;8.35;3.28;;;;;;;3.14;95.98;103858.13;5015165;28;20109;-77
2022/03/20 00:19:21;;;;;;;7.35;4.00;;;;;;;3.03;96.14;103836.59;5011199;28;20033;-78
2022/03/20 00:21:46;;;;;;;7.80;3.92;;;;;;;3.06;96.12;103852.16;4999884;28;20349;-78
2022/03/20 00:24:12;;;;;;;6.57;3.33;;;;;;;3.11;96.15;103852.94;5001265;28;20057;-77
2022/03/20 00:26:39;;;;;;;8.43;3.78;;;;;;;3.11;96.12;103842.50;5016972;28;20084;-78
2022/03/20 00:29:06;;;;;;;8.45;3.35;;;;;;;3.01;96.76;103831.38;4996237;28;20050;-78
2022/03/20 00:31:32;;;;;;;9.48;4.45;;;;;;;2.91;96.30;103814.16;5001550;28;20445;-78
2022/03/20 00:33:58;;;;;;;8.75;3.70;;;;;;;2.98;96.35;103823.59;5015968;28;20096;-78
2022/03/20 00:36:23;;;;;;;6.30;3.95;;;;;;;3.09;96.35;103844.28;5017298;28;20410;-78
2022/03/20 00:38:48;;;;;;;6.85;4.05;;;;;;;3.05;96.39;103840.88;5011816;28;20045;-77
2022/03/20 00:41:14;;;;;;;7.57;3.90;;;;;;;3.04;96.94;103835.69;5013903;28;20438;-77
2022/03/20 00:43:39;;;;;;;5.35;3.22;;;;;;;3.00;97.37;103834.00;5015191;28;20208;-79
2022/03/20 00:46:04;;;;;;;7.95;4.13;;;;;;;3.03;96.60;103834.81;5019713;28;20429;-78
2022/03/20 00:48:30;;;;;;;7.65;3.60;;;;;;;2.96;97.12;103833.22;5017580;28;20030;-78
2022/03/20 00:50:55;;;;;;;8.30;3.80;;;;;;;2.96;96.72;103829.72;4998567;28;20077;-77
2022/03/20 00:53:21;;;;;;;6.60;3.55;;;;;;;2.98;96.82;103830.56;4997624;28;20029;-77
2022/03/20 00:55:46;;;;;;;11.45;4.85;;;;;;;2.96;96.58;103830.63;5019119;28;20028;-77
2022/03/20 00:58:12;;;;;;;7.53;4.22;;;;;;;2.82;96.38;103804.75;5015008;28;20049;-77
2022/03/20 01:00:37;;;;;;;5.13;2.72;;;;;;;2.95;97.39;103820.19;5016132;28;20018;-77
2022/03/20 01:03:03;;;;;;;6.63;4.30;;;;;;;2.78;97.16;103792.63;5013159;28;20038;-78
2022/03/20 01:05:28;;;;;;;7.05;3.97;;;;;;;2.89;97.00;103805.50;5015035;28;20044;-78
2022/03/20 01:07:54;;;;;;;10.30;4.88;;;;;;;2.90;97.44;103820.28;5015787;28;20030;-78
2022/03/20 01:10:19;;;;;;;6.88;4.07;;;;;;;2.82;98.04;103809.97;4999659;28;20473;-78
2022/03/20 01:12:46;;;;;;;7.22;3.38;;;;;;;2.65;97.55;103775.50;5015670;28;20082;-77
2022/03/20 01:15:12;;;;;;;8.10;4.40;;;;;;;2.77;97.62;103796.16;4980887;28;20033;-78
2022/03/20 01:17:38;;;;;;;9.05;4.95;;;;;;;2.83;97.49;103803.00;5014806;28;20030;-77
2022/03/20 01:20:05;;;;;;;7.82;4.15;;;;;;;2.82;97.86;103799.53;5015604;28;20080;-77
2022/03/20 01:22:30;;;;;;;10.10;4.05;;;;;;;2.84;97.92;103800.38;5016764;28;20096;-77
2022/03/20 01:24:56;;;;;;;12.32;4.43;;;;;;;2.68;97.31;103770.25;5011911;28;20071;-77
2022/03/20 01:27:21;;;;;;;13.07;4.25;;;;;;;2.74;97.88;103795.34;5013515;28;20315;-77
2022/03/20 01:29:47;;;;;;;8.60;4.25;;;;;;;2.75;98.00;103790.09;5015675;28;20034;-78
2022/03/20 01:32:12;;;;;;;6.70;3.80;;;;;;;2.61;98.45;103766.00;5015660;28;20079;-78
2022/03/20 01:34:39;;;;;;;11.85;5.75;;;;;;;2.71;98.14;103784.97;4996233;28;20072;-78
2022/03/20 01:37:05;;;;;;;9.35;4.07;;;;;;;2.64;97.92;103771.19;5016839;28;20370;-78
2022/03/20 01:39:31;;;;;;;7.35;4.28;;;;;;;2.54;98.54;103747.00;4983718;28;20087;-78
2022/03/20 01:41:57;;;;;;;9.43;5.35;;;;;;;2.62;98.13;103771.19;5016026;28;20477;-78
2022/03/20 01:44:29;;;;;;;10.38;5.63;;;;;;;2.64;97.80;103769.44;5005201;28;20034;-78
2022/03/20 01:46:55;;;;;;;10.82;5.18;;;;;;;2.64;97.28;103752.94;5022028;28;20513;-79
2022/03/20 01:49:20;;;;;;;9.13;4.90;;;;;;;2.44;97.16;103728.06;5023141;28;20056;-78
2022/03/20 01:54:30;;;;;;;7.22;4.57;;;;;;;2.55;96.66;103747.84;5014563;28;20485;-77
2022/03/20 01:56:56;;;;;;;8.52;4.97;;;;;;;2.50;97.14;103723.63;4997618;28;20029;-77
2022/03/20 01:59:21;;;;;;;10.05;5.22;;;;;;;2.62;96.80;103744.28;5001398;28;20026;-77
2022/03/20 02:01:46;;;;;;;10.48;5.50;;;;;;;2.61;96.32;103737.31;5018104;28;20041;-78
2022/03/20 02:04:15;;;;;;;8.45;5.20;;;;;;;2.51;96.36;103710.56;5018173;28;20037;-77
2022/03/20 02:06:42;;;;;;;12.05;5.30;;;;;;;2.61;96.48;103724.28;5019532;28;20389;-78
2022/03/20 02:09:08;;;;;;;10.88;5.82;;;;;;;2.61;96.13;103726.88;5017166;28;20164;-78
2022/03/20 02:11:34;;;;;;;10.95;5.30;;;;;;;2.58;96.60;103726.94;5015320;28;20037;-78
2022/03/20 02:14:00;;;;;;;12.88;5.22;;;;;;;2.37;96.24;103691.69;5014488;28;20287;-78
2022/03/20 02:16:26;;;;;;;7.35;4.75;;;;;;;2.43;96.52;103708.06;4998832;28;20469;-77
2022/03/20 02:18:52;;;;;;;9.57;5.40;;;;;;;2.32;96.60;103673.53;5016748;28;20056;-79
2022/03/20 02:21:35;;;;;;;11.15;5.60;;;;;;;2.47;96.56;103704.53;5016508;28;20037;-78
2022/03/20 02:24:01;;;;;;;8.00;4.15;;;;;;;2.43;97.29;103689.81;5017642;28;20021;-78
2022/03/20 02:26:26;;;;;;;8.80;5.18;;;;;;;2.46;96.53;103692.41;5016882;28;20086;-77
2022/03/20 02:28:51;;;;;;;12.30;5.30;;;;;;;2.46;96.73;103681.09;5018253;28;20026;-77
2022/03/20 02:31:17;;;;;;;8.98;4.88;;;;;;;2.45;96.69;103682.84;5014863;28;20022;-77
2022/03/20 02:33:43;;;;;;;11.00;5.57;;;;;;;2.46;97.04;103681.09;5020930;28;20030;-77
2022/03/20 02:36:08;;;;;;;9.65;4.88;;;;;;;2.45;95.90;103674.16;5020669;28;20363;-77
2022/03/20 02:38:34;;;;;;;7.20;4.82;;;;;;;2.40;96.58;103689.91;5021783;28;20482;-77
2022/03/20 02:41:14;;;;;;;12.30;5.43;;;;;;;2.14;96.69;103642.59;5004926;28;20343;-78
2022/03/20 02:43:49;;;;;;;8.55;4.22;;;;;;;2.19;96.32;103657.25;5018845;28;20022;-78
2022/03/20 02:46:15;;;;;;;8.85;4.90;;;;;;;2.30;97.06;103667.47;5019139;28;20112;-78
2022/03/20 02:48:41;;;;;;;10.32;5.38;;;;;;;2.17;96.87;103645.13;5017872;28;20022;-78
2022/03/20 02:51:06;;;;;;;10.35;5.18;;;;;;;2.21;96.84;103659.81;5001927;28;20068;-78
2022/03/20 02:53:33;;;;;;;12.70;5.75;;;;;;;2.20;97.08;103643.34;5019633;28;20121;-77
2022/03/20 02:55:59;;;;;;;12.77;5.93;;;;;;;2.18;97.44;103654.69;5001375;28;20313;-77
2022/03/20 02:58:26;;;;;;;9.82;5.82;;;;;;;2.02;96.99;103622.78;5016592;28;20176;-78
2022/03/20 03:00:55;;;;;;;10.80;5.65;;;;;;;2.03;97.44;103629.75;5017967;28;20071;-77
2022/03/20 03:03:21;;;;;;;11.45;7.00;;;;;;;1.97;97.04;103620.28;5016141;28;20030;-77
2022/03/20 03:05:46;;;;;;;9.68;5.68;;;;;;;1.99;96.97;103631.53;5016960;28;20036;-77
2022/03/20 03:10:57;;;;;;;9.40;5.60;;;;;;;2.00;97.19;103632.38;5020513;28;20068;-77
2022/03/20 03:13:30;;;;;;;9.98;6.25;;;;;;;2.00;96.46;103629.78;5017211;28;20041;-78
2022/03/20 03:15:59;;;;;;;10.93;5.47;;;;;;;1.93;96.49;103618.59;5019079;28;20404;-78
2022/03/20 03:18:25;;;;;;;14.70;7.40;;;;;;;1.99;96.22;103623.72;5019499;28;20389;-77
2022/03/20 03:20:51;;;;;;;10.73;6.00;;;;;;;2.02;95.26;103628.84;5017535;28;20124;-77
2022/03/20 03:23:17;;;;;;;12.60;6.93;;;;;;;1.98;95.23;103622.00;5018817;28;20108;-77
2022/03/20 03:25:43;;;;;;;12.98;6.30;;;;;;;1.81;95.63;103592.78;5017429;28;20141;-77
2022/03/20 03:28:09;;;;;;;16.77;7.55;;;;;;;1.77;95.56;103591.13;4985975;28;20517;-77
2022/03/20 03:30:35;;;;;;;12.02;7.40;;;;;;;1.89;94.74;103603.06;5014653;28;20033;-77
2022/03/20 03:33:01;;;;;;;13.38;6.82;;;;;;;1.89;95.39;103601.31;5014746;28;20049;-78
2022/03/20 03:35:41;;;;;;;17.85;6.05;;;;;;;1.82;94.97;103594.50;5014105;28;20088;-77
2022/03/20 03:38:18;;;;;;;12.47;6.57;;;;;;;1.82;95.26;103584.94;5016799;28;20040;-77
2022/03/20 03:40:45;;;;;;;14.55;7.32;;;;;;;1.85;94.50;103591.81;5018712;28;20350;-77
2022/03/20 03:43:15;;;;;;;11.82;6.25;;;;;;;1.84;93.91;103587.50;5017287;28;20033;-77
2022/03/20 03:45:41;;;;;;;14.27;6.80;;;;;;;1.83;94.42;103581.47;5013532;28;20034;-77
2022/03/20 03:48:07;;;;;;;14.23;6.20;;;;;;;1.84;94.85;103577.94;5014416;28;20021;-77
2022/03/20 03:50:34;;;;;;;14.60;6.72;;;;;;;1.80;94.30;103581.50;5008499;28;20087;-77
2022/03/20 03:52:59;;;;;;;9.15;6.75;;;;;;;1.78;93.94;103578.06;5015811;28;20036;-77
2022/03/20 03:55:25;;;;;;;12.80;7.80;;;;;;;1.70;94.50;103568.66;5015952;28;20018;-79
2022/03/20 03:57:51;;;;;;;10.27;6.45;;;;;;;1.69;94.34;103572.16;5001913;28;20384;-78
2022/03/20 04:00:19;;;;;;;13.48;7.10;;;;;;;1.74;94.42;103568.59;5015938;28;20022;-77
2022/03/20 04:02:45;;;;;;;17.15;8.48;;;;;;;1.53;93.73;103545.53;5002034;28;20029;-78
2022/03/20 04:05:11;;;;;;;12.07;6.43;;;;;;;1.66;94.47;103554.00;5013554;28;20030;-78
2022/03/20 04:07:36;;;;;;;15.80;7.50;;;;;;;1.63;94.82;103558.38;5015226;28;20018;-78
2022/03/20 04:10:05;;;;;;;13.85;7.70;;;;;;;1.61;94.26;103554.03;5000829;28;20071;-79
2022/03/20 04:12:30;;;;;;;11.95;7.05;;;;;;;1.58;94.79;103552.34;5023354;28;20064;-78
2022/03/20 04:15:00;;;;;;;13.57;7.80;;;;;;;1.45;94.85;103524.81;5016098;28;20066;-77
2022/03/20 04:17:25;;;;;;;13.07;6.97;;;;;;;1.53;94.84;103553.34;5001111;28;20405;-77
2022/03/20 04:19:51;;;;;;;13.75;7.63;;;;;;;1.51;94.86;103540.34;5015285;28;20029;-77
2022/03/20 04:22:16;;;;;;;15.05;7.60;;;;;;;1.49;94.65;103539.50;5013596;28;20026;-78
2022/03/20 04:24:41;;;;;;;14.73;8.02;;;;;;;1.47;94.73;103536.06;5013395;28;20033;-77
2022/03/20 04:27:08;;;;;;;16.27;7.60;;;;;;;1.30;95.25;103512.91;5015644;28;20026;-77
2022/03/20 04:29:33;;;;;;;13.48;6.82;;;;;;;1.35;95.14;103541.44;5000788;28;20088;-77
2022/03/20 04:31:59;;;;;;;10.07;5.47;;;;;;;1.30;95.13;103545.88;5020027;28;20433;-78
2022/03/20 04:34:27;;;;;;;16.25;7.45;;;;;;;1.32;95.62;103549.31;5015082;28;20053;-77
2022/03/20 04:36:56;;;;;;;19.25;8.23;;;;;;;1.30;95.86;103544.13;5017032;28;20034;-77
2022/03/20 04:39:22;;;;;;;12.43;7.28;;;;;;;1.25;95.88;103537.28;5016634;28;20302;-77
2022/03/20 04:41:47;;;;;;;14.57;7.80;;;;;;;1.28;95.92;103539.84;5015717;28;20057;-77
2022/03/20 04:44:13;;;;;;;13.57;9.35;;;;;;;1.25;95.58;103545.09;5014117;28;20470;-77
2022/03/20 04:46:40;;;;;;;12.80;7.30;;;;;;;1.12;95.62;103519.25;5016778;28;20029;-77
2022/03/20 05:00:01;;;;;;;16.70;8.27;;;;;;;1.08;95.18;103517.56;5018399;28;20037;-79
2022/03/20 05:02:27;;;;;;;17.77;7.45;;;;;;;1.10;94.64;103521.00;5013201;28;20037;-77
2022/03/20 05:04:52;;;;;;;10.65;6.38;;;;;;;1.11;94.47;103506.25;5011492;28;20087;-78
2022/03/20 05:07:18;;;;;;;14.90;7.97;;;;;;;1.00;93.98;103490.81;5014096;28;20462;-78
2022/03/20 05:15:11;;;;;;;15.68;9.63;;;;;;;1.19;92.09;103499.22;5017155;28;20129;-77
2022/03/20 05:17:38;;;;;;;10.82;6.93;;;;;;;1.21;91.60;103502.66;5018696;28;20104;-77
2022/03/20 05:20:04;;;;;;;13.05;8.32;;;;;;;1.21;91.34;103497.44;5014718;28;20033;-78
2022/03/20 05:22:31;;;;;;;16.67;9.15;;;;;;;1.19;91.39;103494.00;5020704;28;20368;-77
2022/03/20 05:24:56;;;;;;;15.40;9.85;;;;;;;1.12;91.17;103471.59;5014641;28;20481;-78
2022/03/20 05:27:22;;;;;;;20.67;10.18;;;;;;;1.20;90.99;103488.78;5002337;28;20033;-77
2022/03/20 05:29:47;;;;;;;16.80;8.90;;;;;;;1.12;90.29;103461.19;4999925;28;20351;-77
2022/03/20 05:32:13;;;;;;;20.92;9.73;;;;;;;1.21;90.03;103474.88;5015575;28;20046;-77
2022/03/20 05:34:39;;;;;;;16.98;10.07;;;;;;;1.23;89.77;103475.72;5000132;28;20030;-77
2022/03/20 05:37:07;;;;;;;14.93;8.52;;;;;;;1.21;89.39;103472.28;5011541;28;20069;-77
2022/03/20 05:39:33;;;;;;;11.77;8.07;;;;;;;1.08;89.76;103447.34;5018085;28;20017;-77
2022/03/20 05:41:58;;;;;;;16.80;8.98;;;;;;;1.20;89.78;103470.56;5018750;28;20064;-77
2022/03/20 05:44:25;;;;;;;19.83;9.82;;;;;;;1.19;89.74;103468.84;5009575;28;20498;-77
2022/03/20 05:46:52;;;;;;;15.07;10.07;;;;;;;1.16;89.87;103468.91;5010718;28;20399;-77
2022/03/20 05:49:22;;;;;;;17.42;8.80;;;;;;;1.17;89.35;103460.19;5017987;28;20076;-77
2022/03/20 05:51:49;;;;;;;17.15;8.25;;;;;;;1.13;89.36;103458.56;5013870;28;20029;-77
2022/03/20 05:54:16;;;;;;;16.13;8.70;;;;;;;1.18;89.23;103458.47;4998998;28;20026;-77
2022/03/20 05:59:26;;;;;;;13.32;8.73;;;;;;;1.15;89.73;103455.91;5014066;28;20100;-77
2022/03/20 06:01:52;;;;;;;17.00;10.05;;;;;;;1.09;89.96;103437.81;5014726;28;20112;-78
2022/03/20 06:04:19;;;;;;;14.80;9.15;;;;;;;1.14;89.88;103455.06;5014202;28;20480;-77
2022/03/20 06:06:44;;;;;;;14.75;9.10;;;;;;;1.05;90.38;103443.97;5014678;28;20136;-77
2022/03/20 06:09:10;;;;;;;15.98;10.23;;;;;;;1.14;90.79;103449.00;5014249;28;20131;-77
2022/03/20 06:11:36;;;;;;;17.55;10.18;;;;;;;1.14;90.45;103455.06;5017497;28;20033;-77
2022/03/20 06:14:03;;;;;;;19.55;10.77;;;;;;;1.15;90.96;103448.97;4999086;28;20496;-77
2022/03/20 06:16:28;;;;;;;14.85;7.85;;;;;;;1.15;91.41;103456.75;5017861;28;20457;-78
2022/03/20 06:18:57;;;;;;;16.88;10.18;;;;;;;1.11;90.83;103439.53;5012469;28;20030;-77
2022/03/20 06:21:23;;;;;;;17.58;10.30;;;;;;;1.10;90.56;103429.97;5015896;28;20148;-77
2022/03/20 06:23:54;;;;;;;18.00;10.13;;;;;;;1.22;90.63;103450.59;5018195;28;20025;-77
2022/03/20 06:26:20;;;;;;;15.73;8.53;;;;;;;1.18;90.76;103425.53;5018942;28;20095;-77
2022/03/20 06:28:48;;;;;;;21.75;9.57;;;;;;;1.29;89.98;103437.50;5014953;28;20285;-77
2022/03/20 06:31:19;;;;;;;17.35;9.05;;;;;;;1.34;90.49;103435.66;5016248;28;20394;-77
2022/03/20 06:33:45;;;;;;;18.13;10.27;;;;;;;1.37;90.54;103425.19;5018850;28;20477;-77
2022/03/20 06:36:10;;;;;;;15.50;9.07;;;;;;;1.44;90.58;103421.63;5014493;28;20291;-77
2022/03/20 06:38:36;;;;;;;19.42;10.07;;;;;;;1.43;90.39;103420.72;5013580;28;20026;-78
2022/03/20 06:41:06;;;;;;;13.48;9.48;;;;;;;1.50;90.36;103431.88;5017439;28;20524;-78
2022/03/20 06:43:35;;;;;;;16.77;8.35;;;;;;;1.52;89.93;103424.06;5020234;28;20022;-78
2022/03/20 06:46:00;;;;;;;17.77;9.43;;;;;;;1.48;90.03;103407.66;5016791;28;20037;-79
2022/03/20 06:48:25;;;;;;;23.00;9.18;;;;;;;1.55;88.98;103416.22;5019324;28;20045;-78
2022/03/20 06:50:51;;;;;;;16.92;8.18;;;;;;;1.48;89.11;103412.88;5001074;28;20123;-80
2022/03/20 06:53:18;;;;;;;18.38;9.82;;;;;;;1.74;89.56;103429.72;5022575;28;20033;-79
2022/03/20 06:55:44;;;;;;;19.02;9.63;;;;;;;1.77;88.79;103422.72;5017812;28;20359;-79
2022/03/20 06:58:10;;;;;;;24.45;10.60;;;;;;;1.85;88.51;103438.19;5017853;28;20444;-80
2022/03/20 07:00:36;;;;;;;15.38;9.00;;;;;;;1.94;87.56;103432.81;5015342;28;20033;-80
2022/03/20 07:03:03;;;;;;;23.60;9.20;;;;;;;1.91;87.15;103403.34;5021865;28;20383;-80
2022/03/20 07:05:30;;;;;;;17.27;9.10;;;;;;;2.10;87.47;103422.94;5020987;28;20354;-79
2022/03/20 07:07:55;;;;;;;19.35;9.85;;;;;;;2.30;86.88;103430.31;5020826;28;20040;-79
2022/03/20 07:10:23;;;;;;;11.90;7.38;;;;;;;2.21;85.84;103425.31;5021343;28;20022;-79
2022/03/20 07:13:48;;;;;;;16.58;9.18;;;;;;;2.26;84.54;103405.22;5012909;28;20502;-79
2022/03/20 07:15:38;;;;;;;15.95;7.75;;;;;;;2.50;84.27;103414.25;5005974;28;20038;-77
2022/03/20 07:18:04;;;;;;;17.92;10.65;;;;;;;2.57;83.75;103428.00;5013064;28;20485;-77
2022/03/20 07:20:31;;;;;;;18.77;11.38;;;;;;;2.62;82.81;103407.91;5005545;28;20025;-77
2022/03/20 07:22:57;;;;;;;15.27;9.73;;;;;;;2.65;82.73;103389.56;5009268;28;20041;-77
2022/03/20 07:30:50;;;;;;;15.40;7.93;;;;;;;2.87;80.68;103396.00;5014887;28;20450;-78
2022/03/20 07:33:16;;;;;;;17.15;9.60;;;;;;;2.93;79.91;103399.34;5000887;28;20532;-78
2022/03/20 07:35:42;;;;;;;13.32;8.75;;;;;;;2.99;79.69;103388.78;5015538;28;20092;-78
2022/03/20 07:38:08;;;;;;;18.80;9.40;;;;;;;3.02;78.55;103381.69;5010769;28;20408;-76
2022/03/20 07:40:34;;;;;;;21.10;10.23;;;;;;;3.36;77.05;103373.00;5021158;28;20029;-78
2022/03/20 07:42:59;;;;;;;19.63;9.90;;;;;;;3.48;76.13;103367.47;5011995;28;20098;-78
2022/03/20 07:45:24;;;;;;;14.35;8.38;;;;;;;3.44;76.14;103354.50;5015845;28;20026;-78
2022/03/20 07:47:50;;;;;;;21.30;9.98;;;;;;;3.67;75.31;103361.72;5012308;28;20061;-78
2022/03/20 07:50:15;;;;;;;13.90;8.82;;;;;;;3.90;75.02;103340.16;5014499;28;20035;-78
2022/03/20 07:52:41;;;;;;;17.02;8.80;;;;;;;3.86;74.74;103325.50;5007464;28;20026;-78
2022/03/20 07:55:07;;;;;;;22.25;10.48;;;;;;;4.05;73.86;103333.59;5009606;28;20093;-78
2022/03/20 07:57:38;;;;;;;16.80;10.40;;;;;;;4.05;73.70;103329.25;5006428;28;20046;-77
2022/03/20 08:00:04;;;;;;;18.15;9.70;;;;;;;4.13;73.05;103337.69;4988881;28;20037;-79
2022/03/20 08:02:30;;;;;;;16.10;9.05;;;;;;;4.33;72.15;103326.66;4990432;28;20036;-77
2022/03/20 08:04:55;;;;;;;16.50;8.80;;;;;;;4.66;71.44;103320.34;4986787;28;20037;-77
2022/03/20 08:07:20;;;;;;;17.33;8.02;;;;;;;4.88;70.16;103323.97;5008251;28;20100;-77
2022/03/20 08:09:46;;;;;;;18.35;9.77;;;;;;;4.94;71.46;103301.97;4990723;28;20044;-78
2022/03/20 08:12:11;;;;;;;16.98;10.13;;;;;;;5.26;68.47;103299.97;5005389;28;20029;-78
2022/03/20 08:14:37;;;;;;;18.85;10.63;;;;;;;5.55;67.65;103298.91;5004029;28;20052;-78
2022/03/20 08:17:06;;;;;;;17.17;10.35;;;;;;;6.30;66.25;103303.06;4987995;28;20518;-77
2022/03/20 08:19:32;;;;;;;15.52;8.93;;;;;;;6.23;64.87;103302.44;5005881;28;20021;-77
2022/03/20 08:21:59;;;;;;;16.65;10.40;;;;;;;6.47;65.35;103313.72;5008495;28;20037;-75
2022/03/20 08:24:25;;;;;;;15.50;9.98;;;;;;;6.68;63.72;103313.72;5010313;28;20025;-76
2022/03/20 08:26:50;;;;;;;15.95;10.07;;;;;;;6.73;63.26;103303.91;5005095;28;20060;-77
2022/03/20 08:29:16;;;;;;;17.50;10.60;;;;;;;6.83;62.82;103305.22;5008102;28;20033;-79
2022/03/20 08:31:47;;;;;;;19.02;10.93;;;;;;;6.80;62.32;103292.22;5005520;28;20505;-78
2022/03/20 08:34:16;;;;;;;16.13;11.32;;;;;;;7.44;61.25;103296.41;5004579;28;20021;-75
2022/03/20 08:36:44;;;;;;;16.77;10.75;;;;;;;7.57;59.45;103288.84;5011025;28;20026;-77
2022/03/20 08:39:09;;;;;;;15.18;10.55;;;;;;;7.47;60.09;103274.41;5011266;28;20108;-77
2022/03/20 08:41:35;;;;;;;16.90;11.07;;;;;;;7.59;58.62;103279.09;5019389;28;20125;-76
2022/03/20 08:44:02;;;;;;;15.45;10.90;;;;;;;6.79;57.83;103270.38;5012964;28;20034;-76
2022/03/20 08:46:28;;;;;;;16.50;11.02;;;;;;;6.87;58.88;103269.19;5009774;28;20056;-76
2022/03/20 08:48:53;;;;;;;21.10;11.48;;;;;;;6.96;58.46;103239.91;5010415;28;20550;-77
2022/03/20 08:51:19;;;;;;;18.45;11.45;;;;;;;6.74;59.13;103255.75;4989631;28;20426;-76
2022/03/20 08:53:44;;;;;;;16.50;11.57;;;;;;;7.38;58.00;103252.03;5013282;28;20382;-77
2022/03/20 08:56:09;;;;;;;16.98;11.25;;;;;;;7.43;57.49;103262.34;5006591;28;20497;-76
2022/03/20 08:58:36;;;;;;;17.85;11.15;;;;;;;7.00;58.23;103254.59;5009182;28;20073;-77
2022/03/20 09:01:01;;;;;;;17.75;11.43;;;;;;;7.07;58.00;103250.78;5011315;28;20512;-76
2022/03/20 09:03:27;;;;;;;18.27;12.45;;;;;;;7.10;57.70;103257.66;5016899;28;20026;-76
2022/03/20 09:05:53;;;;;;;19.63;11.65;;;;;;;7.49;58.08;103233.16;5014921;28;20040;-77
2022/03/20 09:08:19;;;;;;;19.05;12.10;;;;;;;7.07;57.28;103179.88;5005911;28;20608;-76
2022/03/20 09:10:44;;;;;;;17.48;9.77;;;;;;;7.25;57.36;103220.25;5013957;28;20036;-76
2022/03/20 09:13:10;;;;;;;18.23;11.02;;;;;;;7.48;56.71;103224.41;5010339;28;20033;-76
2022/03/20 09:15:35;;;;;;;18.20;10.45;;;;;;;7.45;56.74;103216.69;5010719;28;20191;-76
2022/03/20 09:20:46;;;;;;;17.67;11.73;;;;;;;7.81;57.19;103226.38;5010337;28;20083;-77
2022/03/20 09:23:14;;;;;;;17.75;11.13;;;;;;;7.89;56.01;103228.66;5015671;28;20085;-77
2022/03/20 09:25:39;;;;;;;18.83;12.27;;;;;;;7.91;55.83;103225.00;5012299;28;20058;-76
2022/03/20 09:28:06;;;;;;;18.92;11.45;;;;;;;7.81;55.74;103210.59;5008820;28;20038;-77
2022/03/20 09:30:33;;;;;;;16.08;10.65;;;;;;;7.24;57.29;103215.03;4994356;28;20504;-77
2022/03/20 09:33:01;;;;;;;17.17;11.73;;;;;;;7.99;56.25;103195.69;5007655;28;20038;-76
2022/03/20 09:35:27;;;;;;;20.55;13.05;;;;;;;7.99;56.16;103191.31;5013695;28;20527;-76
2022/03/20 09:37:52;;;;;;;18.73;11.35;;;;;;;7.65;55.82;103188.63;5010075;28;20026;-76
2022/03/20 09:40:22;;;;;;;15.93;11.00;;;;;;;8.06;55.06;103160.28;5014839;28;20101;-76
2022/03/20 09:42:47;;;;;;;18.92;12.63;;;;;;;9.12;53.47;103204.81;5021327;28;20526;-75
2022/03/20 09:45:17;;;;;;;16.88;11.88;;;;;;;8.93;53.40;103170.75;5014683;28;20104;-75
2022/03/20 09:47:42;;;;;;;20.02;12.80;;;;;;;8.54;53.90;103171.91;5014836;28;20473;-74
2022/03/20 09:50:09;;;;;;;18.63;12.35;;;;;;;8.68;53.14;103147.47;5016245;28;20057;-75
2022/03/20 09:52:36;;;;;;;19.10;12.30;;;;;;;8.65;53.55;103177.47;5011625;28;20029;-75
2022/03/20 09:55:04;;;;;;;18.17;12.40;;;;;;;8.65;53.24;103174.81;5012672;28;20037;-75
2022/03/20 09:57:30;;;;;;;16.55;11.55;;;;;;;8.93;53.64;103146.16;5010108;28;20488;-75
2022/03/20 10:00:01;;;;;;;18.90;12.13;;;;;;;9.31;53.93;103143.22;5008666;28;20038;-75
2022/03/20 10:02:28;;;;;;;21.60;13.57;;;;;;;9.32;52.25;103153.69;5008426;28;20112;-77
2022/03/20 10:05:04;;;;;;;20.60;14.07;;;;;;;9.22;51.97;103139.31;5007747;28;20539;-75
2022/03/20 10:07:39;;;;;;;19.15;12.82;;;;;;;9.34;52.72;103154.47;5023666;28;20318;-75
2022/03/20 10:10:11;;;;;;;18.98;12.13;;;;;;;10.12;52.02;103127.16;5010745;28;20091;-75
2022/03/20 10:12:41;;;;;;;21.80;13.82;;;;;;;10.14;51.03;103130.56;5016228;28;20113;-75
2022/03/20 10:15:09;;;;;;;20.67;12.75;;;;;;;9.24;50.51;103130.38;5017230;28;20105;-75
2022/03/20 10:17:35;;;;;;;23.75;14.88;;;;;;;9.54;50.79;103126.09;5018985;28;20029;-75
2022/03/20 10:20:15;;;;;;;21.45;13.93;;;;;;;9.63;50.64;103117.69;5014966;28;20036;-75
2022/03/20 10:22:40;;;;;;;21.75;14.13;;;;;;;9.14;50.80;103117.81;5015275;28;20037;-75
2022/03/20 10:25:09;;;;;;;19.83;13.88;;;;;;;8.96;51.21;103086.28;5011404;28;20091;-75
2022/03/20 10:27:35;;;;;;;19.60;14.15;;;;;;;9.48;50.22;103114.97;5018517;28;20038;-75
2022/03/20 10:30:01;;;;;;;20.38;12.60;;;;;;;9.02;50.70;103093.00;5024423;28;20038;-74
2022/03/20 10:32:27;;;;;;;20.75;14.20;;;;;;;9.88;49.33;103107.41;5014219;28;20358;-75
2022/03/20 10:35:01;;;;;;;21.40;13.85;;;;;;;9.33;50.14;103107.09;5015972;28;20405;-74
2022/03/20 10:37:48;;;;;;;21.20;14.15;;;;;;;9.06;51.33;103089.28;5027274;28;20025;-74
2022/03/20 10:40:20;;;;;;;26.80;14.98;;;;;;;8.81;50.82;103082.69;5024771;28;20041;-74
2022/03/20 10:43:22;;;;;;;21.73;14.70;;;;;;;8.62;51.44;103100.41;5016518;28;20461;-74
2022/03/20 10:46:00;;;;;;;20.88;14.38;;;;;;;9.08;51.86;103071.59;5022512;28;20022;-75
2022/03/20 10:48:37;;;;;;;22.58;14.05;;;;;;;9.16;51.43;103071.16;5023711;28;20029;-74
2022/03/20 10:51:05;;;;;;;23.42;14.23;;;;;;;9.56;50.68;103058.31;5034660;28;20042;-75
2022/03/20 10:53:30;;;;;;;22.20;14.20;;;;;;;10.00;50.26;103078.63;5011658;28;20417;-75
2022/03/20 10:56:06;;;;;;;21.55;14.25;;;;;;;10.11;49.63;103044.53;5023294;28;20041;-74
2022/03/20 10:58:36;;;;;;;21.52;14.00;;;;;;;10.14;48.95;103054.88;5020547;28;20064;-74
2022/03/20 11:01:02;;;;;;;20.30;14.00;;;;;;;9.87;49.21;103055.59;5018204;28;20065;-75
2022/03/20 11:03:29;;;;;;;25.08;14.52;;;;;;;10.13;49.03;103045.28;5023341;28;20106;-74
2022/03/20 11:05:57;;;;;;;22.35;14.18;;;;;;;9.59;48.77;103035.28;4997656;28;20446;-74
2022/03/20 11:08:25;;;;;;;21.55;14.73;;;;;;;9.30;50.09;103059.81;5024724;28;20345;-74
2022/03/20 11:10:53;;;;;;;24.30;15.63;;;;;;;9.63;48.64;103026.25;5010305;28;20342;-74
2022/03/20 11:13:19;;;;;;;19.98;13.23;;;;;;;9.43;49.63;103030.06;5021896;28;20021;-74
2022/03/20 11:15:45;;;;;;;23.65;14.43;;;;;;;9.53;48.79;103019.81;5023190;28;20033;-75
2022/03/20 11:18:15;;;;;;;22.70;13.20;;;;;;;9.98;48.69;103022.47;5011291;28;20014;-74
2022/03/20 11:20:50;;;;;;;23.60;15.02;;;;;;;9.89;48.98;103005.41;5013073;28;20482;-73
2022/03/20 11:23:17;;;;;;;21.15;14.52;;;;;;;10.00;47.55;103013.50;5011223;28;20432;-75
2022/03/20 11:25:45;;;;;;;22.30;14.65;;;;;;;10.20;48.74;102998.25;5008517;28;20112;-74
2022/03/20 11:28:12;;;;;;;22.80;15.35;;;;;;;10.32;47.10;103000.13;5014346;28;20083;-74
2022/03/20 11:30:39;;;;;;;20.80;13.52;;;;;;;9.73;48.24;102979.09;5011080;28;20026;-74
2022/03/20 11:33:06;;;;;;;20.48;11.73;;;;;;;9.68;47.33;102981.16;5015867;28;20040;-74
2022/03/20 11:35:34;;;;;;;23.70;14.60;;;;;;;9.89;48.05;102987.78;5014453;28;20018;-74
2022/03/20 11:38:14;;;;;;;23.33;14.23;;;;;;;10.03;48.58;102984.28;5014147;28;20080;-74
2022/03/20 11:40:41;;;;;;;21.50;14.25;;;;;;;9.51;48.06;102932.06;5010980;28;20088;-74
2022/03/20 11:43:09;;;;;;;20.50;13.85;;;;;;;10.35;47.72;102946.34;5004170;28;20037;-74
2022/03/20 11:45:34;;;;;;;25.90;15.75;;;;;;;10.65;46.60;102930.31;5014045;28;20017;-74
2022/03/20 11:48:13;;;;;;;21.73;12.13;;;;;;;10.34;47.41;102929.63;5013166;28;20482;-74
2022/03/20 11:50:44;;;;;;;21.85;15.23;;;;;;;10.55;47.94;102923.94;5022993;28;20034;-74
2022/03/20 11:53:10;;;;;;;22.27;13.65;;;;;;;10.98;46.28;102915.84;5016010;28;20397;-74
2022/03/20 11:55:51;;;;;;;22.85;14.77;;;;;;;10.67;46.61;102916.06;5010016;28;20576;-74
2022/03/20 11:58:16;;;;;;;21.52;13.70;;;;;;;11.24;47.15;102895.59;5019034;28;20547;-74